Aeroporto :
LOGIN :

Iscrizione | Disclaimer

   EN    FR    IT 

 










Sommario :    VFR   VFR Marginale   IFR   IFR Intensivo   IFR Molto Intensivo
Visibilità : 
Base nubi : 
>= 8 km
>= 3000ft
5 / 8 km
1000 / 3000 ft
1500m / 5 km
500 / 1000 ft
800 / 1500m
200 / 500 ft
< 800m
< 200 ft
Simboli :   Temporali  Nebbia  Neve Forte  Precipitazioni Forti  Vento > 20 kt
SIGMETs :   Varie  Temporali  Ghiacco  Turbolenza  Onda orograficha  Ceneri Vulcaniche






- Altitudine del aeroporto : 119 ft
- Codice IATA : WAT


EIWF - Waterford

ULTIMO METAR :
  • 071230Z 24009KT 210V280 1400 BR OVC001 18/18 Q1017 R21/0/////

METARs OBSOLETI :
  • 071200Z 23011KT 200V270 0750 FG OVC001 18/18 Q1017 R21/1/////
  • 071130Z 21013KT 2000 BR OVC002 17/17 Q1017 R21/1/////
  • 071100Z 21012KT 180V240 1200 BR BKN002 17/17 Q1016 R21/1/////
  • 071030Z 20011KT 180V240 1000 FG BKN002 17/17 Q1017 R21/1/////
  • 071000Z 20012KT 1200 BR OVC002 17/16 Q1016 R21/1/////

TAF TAF EIWF
Valido dal 07 a 12 ore il 07 a 21 ore UTC


071100Z 0712/0721 22009KT 1000 FG BKN002
BECMG 0712/0714 4000 BR BKN005
BECMG 0716/0718 9999 NSW FEW020
ATIS : +353 51 877 000



MetMap, La meteo Aeronautica in un colpo d'occhio ! - Copyright ORBIFLY Dicembre 2007 - Disclaimer

ORBIFLY MET'MAP TEAM :

Programmazione e sviluppo : Alexandra Zaïnal
Concezione : Baudouin d'Aumeries
Aiuto per la programmazione : Marc-Olivier Méhu
Supporto tecnico e logistico : Manuel Goepfert
Aiuto per la traduzione : Arnaldo La Scala

Contatto : metmap@orbifly.com




FONTI E CREDITI :

   NOAA